sensor_id;sensor_type;location;lat;lon;timestamp;pressure;altitude;pressure_sealevel;temperature;humidity
53340;BME280;46212;50.258;19.062;2024-02-26T00:01:51;97523.22;;;2.97;91.18
53340;BME280;46212;50.258;19.062;2024-02-26T00:04:17;97522.31;;;2.88;91.41
53340;BME280;46212;50.258;19.062;2024-02-26T00:06:42;97529.38;;;3.14;91.42
53340;BME280;46212;50.258;19.062;2024-02-26T00:09:08;97515.91;;;3.36;91.73
53340;BME280;46212;50.258;19.062;2024-02-26T00:11:37;97523.59;;;3.12;92.05
53340;BME280;46212;50.258;19.062;2024-02-26T00:14:03;97509.50;;;3.01;91.92
53340;BME280;46212;50.258;19.062;2024-02-26T00:16:29;97521.91;;;3.02;91.57
53340;BME280;46212;50.258;19.062;2024-02-26T00:18:54;97521.63;;;3.12;91.69
53340;BME280;46212;50.258;19.062;2024-02-26T00:21:20;97516.63;;;2.82;92.52
53340;BME280;46212;50.258;19.062;2024-02-26T00:23:45;97507.59;;;2.85;92.83
53340;BME280;46212;50.258;19.062;2024-02-26T00:26:11;97520.91;;;2.96;94.02
53340;BME280;46212;50.258;19.062;2024-02-26T00:28:37;97521.88;;;2.89;94.48
53340;BME280;46212;50.258;19.062;2024-02-26T00:31:02;97518.16;;;2.83;93.98
53340;BME280;46212;50.258;19.062;2024-02-26T00:33:28;97513.59;;;2.64;93.93
53340;BME280;46212;50.258;19.062;2024-02-26T00:35:53;97523.94;;;2.56;94.69
53340;BME280;46212;50.258;19.062;2024-02-26T00:38:19;97507.59;;;2.56;96.21
53340;BME280;46212;50.258;19.062;2024-02-26T00:40:44;97503.25;;;2.43;96.73
53340;BME280;46212;50.258;19.062;2024-02-26T00:43:10;97527.94;;;2.52;97.86
53340;BME280;46212;50.258;19.062;2024-02-26T00:45:35;97527.63;;;2.34;98.37
53340;BME280;46212;50.258;19.062;2024-02-26T00:48:01;97524.03;;;2.37;98.26
53340;BME280;46212;50.258;19.062;2024-02-26T00:50:33;97518.91;;;2.39;97.82
53340;BME280;46212;50.258;19.062;2024-02-26T00:52:59;97526.69;;;2.40;98.08
53340;BME280;46212;50.258;19.062;2024-02-26T00:55:24;97518.06;;;2.09;98.70
53340;BME280;46212;50.258;19.062;2024-02-26T00:57:50;97507.19;;;2.26;99.06
53340;BME280;46212;50.258;19.062;2024-02-26T01:00:15;97515.78;;;2.24;99.68
53340;BME280;46212;50.258;19.062;2024-02-26T01:02:41;97527.19;;;2.35;99.82
53340;BME280;46212;50.258;19.062;2024-02-26T01:05:12;97515.50;;;2.51;100.00
53340;BME280;46212;50.258;19.062;2024-02-26T01:07:37;97515.06;;;2.52;98.54
53340;BME280;46212;50.258;19.062;2024-02-26T01:10:03;97523.69;;;2.80;97.75
53340;BME280;46212;50.258;19.062;2024-02-26T01:12:29;97517.66;;;3.30;96.52
53340;BME280;46212;50.258;19.062;2024-02-26T01:14:55;97508.03;;;3.25;95.08
53340;BME280;46212;50.258;19.062;2024-02-26T01:17:20;97518.91;;;3.12;94.76
53340;BME280;46212;50.258;19.062;2024-02-26T01:19:46;97506.78;;;3.01;94.88
53340;BME280;46212;50.258;19.062;2024-02-26T01:22:11;97520.06;;;2.99;94.88
53340;BME280;46212;50.258;19.062;2024-02-26T01:24:36;97524.19;;;2.62;95.92
53340;BME280;46212;50.258;19.062;2024-02-26T01:27:02;97512.13;;;2.76;95.67
53340;BME280;46212;50.258;19.062;2024-02-26T01:29:27;97516.75;;;2.62;95.29
53340;BME280;46212;50.258;19.062;2024-02-26T01:31:53;97509.56;;;2.24;96.54
53340;BME280;46212;50.258;19.062;2024-02-26T01:34:18;97513.06;;;2.24;96.78
53340;BME280;46212;50.258;19.062;2024-02-26T01:36:44;97514.16;;;2.27;97.37
53340;BME280;46212;50.258;19.062;2024-02-26T01:39:09;97500.31;;;2.05;97.54
53340;BME280;46212;50.258;19.062;2024-02-26T01:41:38;97519.22;;;2.12;98.55
53340;BME280;46212;50.258;19.062;2024-02-26T01:44:03;97495.34;;;2.00;99.71
53340;BME280;46212;50.258;19.062;2024-02-26T01:46:29;97503.38;;;2.07;100.00
53340;BME280;46212;50.258;19.062;2024-02-26T01:48:56;97494.63;;;2.16;100.00
53340;BME280;46212;50.258;19.062;2024-02-26T01:51:22;97498.75;;;2.20;100.00
53340;BME280;46212;50.258;19.062;2024-02-26T01:53:48;97507.88;;;2.30;99.56
53340;BME280;46212;50.258;19.062;2024-02-26T01:56:15;97500.22;;;2.25;98.82
53340;BME280;46212;50.258;19.062;2024-02-26T01:58:42;97495.25;;;2.36;97.98
53340;BME280;46212;50.258;19.062;2024-02-26T02:01:08;97508.38;;;2.41;97.70
53340;BME280;46212;50.258;19.062;2024-02-26T02:03:33;97504.66;;;2.19;97.57
53340;BME280;46212;50.258;19.062;2024-02-26T02:05:59;97517.31;;;1.93;98.57
53340;BME280;46212;50.258;19.062;2024-02-26T02:08:24;97495.19;;;1.91;99.24
53340;BME280;46212;50.258;19.062;2024-02-26T02:10:50;97500.38;;;1.85;99.89
53340;BME280;46212;50.258;19.062;2024-02-26T02:13:16;97512.91;;;2.15;99.67
53340;BME280;46212;50.258;19.062;2024-02-26T02:15:41;97507.34;;;2.35;98.81
53340;BME280;46212;50.258;19.062;2024-02-26T02:18:07;97502.63;;;2.51;97.73
53340;BME280;46212;50.258;19.062;2024-02-26T02:20:33;97506.56;;;2.50;97.76
53340;BME280;46212;50.258;19.062;2024-02-26T02:22:59;97512.50;;;2.61;97.84
53340;BME280;46212;50.258;19.062;2024-02-26T02:25:24;97513.19;;;2.65;97.74
53340;BME280;46212;50.258;19.062;2024-02-26T02:27:50;97505.09;;;2.62;97.38
53340;BME280;46212;50.258;19.062;2024-02-26T02:30:16;97505.50;;;2.60;97.00
53340;BME280;46212;50.258;19.062;2024-02-26T02:32:42;97509.63;;;2.52;96.99
53340;BME280;46212;50.258;19.062;2024-02-26T02:35:08;97505.81;;;2.50;96.57
53340;BME280;46212;50.258;19.062;2024-02-26T02:37:34;97506.34;;;2.12;95.98
53340;BME280;46212;50.258;19.062;2024-02-26T02:39:59;97509.53;;;1.59;97.58
53340;BME280;46212;50.258;19.062;2024-02-26T02:42:25;97502.66;;;1.54;99.05
53340;BME280;46212;50.258;19.062;2024-02-26T02:44:51;97486.28;;;1.38;99.60
53340;BME280;46212;50.258;19.062;2024-02-26T02:47:16;97500.22;;;1.40;100.00
53340;BME280;46212;50.258;19.062;2024-02-26T02:49:42;97505.13;;;1.49;100.00
53340;BME280;46212;50.258;19.062;2024-02-26T02:52:07;97499.09;;;1.57;99.61
53340;BME280;46212;50.258;19.062;2024-02-26T02:54:32;97492.44;;;1.42;99.29
53340;BME280;46212;50.258;19.062;2024-02-26T02:56:58;97490.78;;;1.29;99.85
53340;BME280;46212;50.258;19.062;2024-02-26T02:59:23;97508.16;;;1.51;99.04
53340;BME280;46212;50.258;19.062;2024-02-26T03:01:49;97486.28;;;1.38;99.22
53340;BME280;46212;50.258;19.062;2024-02-26T03:04:14;97480.69;;;1.45;99.71
53340;BME280;46212;50.258;19.062;2024-02-26T03:06:40;97491.19;;;1.79;99.61
53340;BME280;46212;50.258;19.062;2024-02-26T03:09:05;97494.00;;;1.92;98.95
53340;BME280;46212;50.258;19.062;2024-02-26T03:11:31;97494.78;;;1.92;98.65
53340;BME280;46212;50.258;19.062;2024-02-26T03:13:56;97492.19;;;1.69;98.49
53340;BME280;46212;50.258;19.062;2024-02-26T03:16:21;97499.22;;;1.50;99.62
53340;BME280;46212;50.258;19.062;2024-02-26T03:18:47;97479.97;;;1.77;99.49
53340;BME280;46212;50.258;19.062;2024-02-26T03:21:12;97483.50;;;1.42;98.64
53340;BME280;46212;50.258;19.062;2024-02-26T03:23:37;97475.19;;;1.65;99.16
53340;BME280;46212;50.258;19.062;2024-02-26T03:26:06;97494.41;;;1.90;98.23
53340;BME280;46212;50.258;19.062;2024-02-26T03:28:31;97479.91;;;1.81;97.99
53340;BME280;46212;50.258;19.062;2024-02-26T03:31:01;97483.09;;;1.76;98.03
53340;BME280;46212;50.258;19.062;2024-02-26T03:33:27;97487.47;;;1.89;97.84
53340;BME280;46212;50.258;19.062;2024-02-26T03:35:52;97492.31;;;2.14;97.54
53340;BME280;46212;50.258;19.062;2024-02-26T03:38:18;97494.09;;;1.88;96.98
53340;BME280;46212;50.258;19.062;2024-02-26T03:40:43;97486.47;;;1.47;98.21
53340;BME280;46212;50.258;19.062;2024-02-26T03:43:09;97492.19;;;1.53;98.48
53340;BME280;46212;50.258;19.062;2024-02-26T03:45:34;97491.63;;;1.62;98.68
53340;BME280;46212;50.258;19.062;2024-02-26T03:47:59;97484.72;;;1.73;98.30
53340;BME280;46212;50.258;19.062;2024-02-26T03:50:25;97482.00;;;1.73;97.88
53340;BME280;46212;50.258;19.062;2024-02-26T03:52:50;97474.00;;;1.82;97.65
53340;BME280;46212;50.258;19.062;2024-02-26T03:55:16;97478.75;;;1.78;97.70
53340;BME280;46212;50.258;19.062;2024-02-26T03:57:46;97463.91;;;1.83;97.55
53340;BME280;46212;50.258;19.062;2024-02-26T04:00:12;97465.84;;;1.98;96.83
53340;BME280;46212;50.258;19.062;2024-02-26T04:02:37;97453.41;;;1.81;97.03
53340;BME280;46212;50.258;19.062;2024-02-26T04:05:03;97467.81;;;1.98;96.47
53340;BME280;46212;50.258;19.062;2024-02-26T04:07:29;97458.78;;;1.85;96.47
53340;BME280;46212;50.258;19.062;2024-02-26T04:09:54;97448.06;;;1.78;96.06
53340;BME280;46212;50.258;19.062;2024-02-26T04:12:20;97462.63;;;1.71;96.15
53340;BME280;46212;50.258;19.062;2024-02-26T04:14:45;97450.38;;;1.27;96.03
53340;BME280;46212;50.258;19.062;2024-02-26T04:17:10;97446.41;;;0.96;97.48
53340;BME280;46212;50.258;19.062;2024-02-26T04:19:36;97445.84;;;1.04;98.11
53340;BME280;46212;50.258;19.062;2024-02-26T04:22:01;97452.03;;;1.41;97.79
53340;BME280;46212;50.258;19.062;2024-02-26T04:24:27;97447.38;;;1.57;97.42
53340;BME280;46212;50.258;19.062;2024-02-26T04:26:52;97446.78;;;1.50;97.14
53340;BME280;46212;50.258;19.062;2024-02-26T04:29:18;97448.56;;;1.56;97.15
53340;BME280;46212;50.258;19.062;2024-02-26T04:31:43;97452.75;;;1.61;96.81
53340;BME280;46212;50.258;19.062;2024-02-26T04:34:08;97439.41;;;1.67;97.01
53340;BME280;46212;50.258;19.062;2024-02-26T04:36:34;97460.06;;;1.80;96.52
53340;BME280;46212;50.258;19.062;2024-02-26T04:38:59;97438.13;;;1.71;96.91
53340;BME280;46212;50.258;19.062;2024-02-26T04:41:25;97445.53;;;1.87;97.10
53340;BME280;46212;50.258;19.062;2024-02-26T04:43:50;97427.41;;;1.64;96.85
53340;BME280;46212;50.258;19.062;2024-02-26T04:46:15;97445.59;;;1.67;97.13
53340;BME280;46212;50.258;19.062;2024-02-26T04:48:41;97438.72;;;1.79;97.51
53340;BME280;46212;50.258;19.062;2024-02-26T04:51:10;97437.66;;;1.40;96.78
53340;BME280;46212;50.258;19.062;2024-02-26T04:53:36;97425.84;;;1.47;97.60
53340;BME280;46212;50.258;19.062;2024-02-26T04:56:01;97413.34;;;1.17;97.56
53340;BME280;46212;50.258;19.062;2024-02-26T04:58:27;97429.53;;;1.21;97.67
53340;BME280;46212;50.258;19.062;2024-02-26T05:00:52;97418.25;;;1.22;97.00
53340;BME280;46212;50.258;19.062;2024-02-26T05:03:18;97429.69;;;0.97;98.26
53340;BME280;46212;50.258;19.062;2024-02-26T05:05:43;97423.22;;;0.91;99.67
53340;BME280;46212;50.258;19.062;2024-02-26T05:08:09;97414.75;;;1.05;99.74
53340;BME280;46212;50.258;19.062;2024-02-26T05:10:34;97434.06;;;1.27;99.54
53340;BME280;46212;50.258;19.062;2024-02-26T05:13:04;97427.28;;;1.35;99.24
53340;BME280;46212;50.258;19.062;2024-02-26T05:15:30;97420.56;;;1.40;99.08
53340;BME280;46212;50.258;19.062;2024-02-26T05:17:55;97442.25;;;1.43;98.59
53340;BME280;46212;50.258;19.062;2024-02-26T05:20:20;97434.56;;;1.22;98.56
53340;BME280;46212;50.258;19.062;2024-02-26T05:22:46;97441.88;;;1.61;98.21
53340;BME280;46212;50.258;19.062;2024-02-26T05:25:14;97439.81;;;1.81;97.13
53340;BME280;46212;50.258;19.062;2024-02-26T05:27:40;97442.03;;;1.70;97.31
53340;BME280;46212;50.258;19.062;2024-02-26T05:30:06;97444.41;;;1.68;97.40
53340;BME280;46212;50.258;19.062;2024-02-26T05:32:31;97453.69;;;1.54;97.25
53340;BME280;46212;50.258;19.062;2024-02-26T05:34:57;97452.47;;;1.55;97.10
53340;BME280;46212;50.258;19.062;2024-02-26T05:37:22;97438.19;;;1.51;97.28
53340;BME280;46212;50.258;19.062;2024-02-26T05:39:47;97462.84;;;1.60;97.27
53340;BME280;46212;50.258;19.062;2024-02-26T05:42:13;97442.78;;;1.54;96.67
53340;BME280;46212;50.258;19.062;2024-02-26T05:44:39;97445.84;;;1.56;96.90
53340;BME280;46212;50.258;19.062;2024-02-26T05:47:04;97444.66;;;1.57;96.62
53340;BME280;46212;50.258;19.062;2024-02-26T05:49:30;97464.28;;;1.65;96.46
53340;BME280;46212;50.258;19.062;2024-02-26T05:51:55;97466.78;;;1.92;95.79
53340;BME280;46212;50.258;19.062;2024-02-26T05:54:20;97467.31;;;1.87;95.08
53340;BME280;46212;50.258;19.062;2024-02-26T05:56:46;97469.09;;;1.93;95.36
53340;BME280;46212;50.258;19.062;2024-02-26T05:59:11;97458.06;;;1.32;96.04
53340;BME280;46212;50.258;19.062;2024-02-26T06:01:37;97461.00;;;1.74;97.13
53340;BME280;46212;50.258;19.062;2024-02-26T06:04:02;97482.44;;;1.88;96.93
53340;BME280;46212;50.258;19.062;2024-02-26T06:06:28;97460.72;;;2.00;96.67
53340;BME280;46212;50.258;19.062;2024-02-26T06:08:53;97464.47;;;2.06;nan
53340;BME280;46212;50.258;19.062;2024-02-26T06:11:18;97468.72;;;2.07;96.09
53340;BME280;46212;50.258;19.062;2024-02-26T06:13:44;97479.88;;;1.97;96.32
53340;BME280;46212;50.258;19.062;2024-02-26T06:16:09;97479.63;;;1.91;95.73
53340;BME280;46212;50.258;19.062;2024-02-26T06:18:35;97468.47;;;2.02;95.57
53340;BME280;46212;50.258;19.062;2024-02-26T06:21:00;97467.19;;;2.06;95.27
53340;BME280;46212;50.258;19.062;2024-02-26T06:23:26;97489.66;;;2.10;95.67
53340;BME280;46212;50.258;19.062;2024-02-26T06:25:52;97478.78;;;2.10;95.91
53340;BME280;46212;50.258;19.062;2024-02-26T06:28:17;97485.16;;;2.20;95.74
53340;BME280;46212;50.258;19.062;2024-02-26T06:30:42;97496.72;;;2.24;95.82
53340;BME280;46212;50.258;19.062;2024-02-26T06:33:08;97493.47;;;2.29;96.15
53340;BME280;46212;50.258;19.062;2024-02-26T06:35:33;97498.91;;;2.45;95.71
53340;BME280;46212;50.258;19.062;2024-02-26T06:37:59;97499.25;;;2.47;96.01
53340;BME280;46212;50.258;19.062;2024-02-26T06:40:24;97497.78;;;2.59;95.67
53340;BME280;46212;50.258;19.062;2024-02-26T06:42:50;97493.50;;;2.58;95.65
53340;BME280;46212;50.258;19.062;2024-02-26T06:45:17;97496.19;;;2.74;96.03
53340;BME280;46212;50.258;19.062;2024-02-26T06:47:43;97487.97;;;2.61;96.03
53340;BME280;46212;50.258;19.062;2024-02-26T06:50:11;97483.53;;;2.67;95.66
53340;BME280;46212;50.258;19.062;2024-02-26T06:52:36;97492.19;;;2.79;95.69
53340;BME280;46212;50.258;19.062;2024-02-26T06:55:02;97492.97;;;2.92;96.01
53340;BME280;46212;50.258;19.062;2024-02-26T06:57:27;97472.31;;;3.07;94.93
53340;BME280;46212;50.258;19.062;2024-02-26T06:59:52;97478.97;;;3.18;94.61
53340;BME280;46212;50.258;19.062;2024-02-26T07:02:18;97484.34;;;3.22;94.52
53340;BME280;46212;50.258;19.062;2024-02-26T07:04:43;97483.66;;;3.18;94.52
53340;BME280;46212;50.258;19.062;2024-02-26T07:07:09;97496.91;;;3.32;94.96
53340;BME280;46212;50.258;19.062;2024-02-26T07:09:34;97489.94;;;3.44;95.29
53340;BME280;46212;50.258;19.062;2024-02-26T07:12:00;97478.59;;;3.33;96.03
53340;BME280;46212;50.258;19.062;2024-02-26T07:14:25;97482.53;;;3.57;95.59
53340;BME280;46212;50.258;19.062;2024-02-26T07:16:50;97499.56;;;3.73;95.01
53340;BME280;46212;50.258;19.062;2024-02-26T07:19:16;97487.00;;;3.76;94.85
53340;BME280;46212;50.258;19.062;2024-02-26T07:21:42;97489.06;;;3.85;94.40
53340;BME280;46212;50.258;19.062;2024-02-26T07:24:08;97483.38;;;3.92;94.08
53340;BME280;46212;50.258;19.062;2024-02-26T07:26:33;97495.88;;;4.40;93.25
53340;BME280;46212;50.258;19.062;2024-02-26T07:28:59;97490.75;;;4.63;92.15
53340;BME280;46212;50.258;19.062;2024-02-26T07:31:25;97498.00;;;4.57;92.03
53340;BME280;46212;50.258;19.062;2024-02-26T07:33:50;97496.63;;;4.74;91.87
53340;BME280;46212;50.258;19.062;2024-02-26T07:36:16;97491.56;;;4.86;91.17
53340;BME280;46212;50.258;19.062;2024-02-26T07:38:42;97491.44;;;5.11;90.47
53340;BME280;46212;50.258;19.062;2024-02-26T07:41:07;97482.84;;;5.21;89.97
53340;BME280;46212;50.258;19.062;2024-02-26T07:43:33;97494.91;;;5.55;89.52
53340;BME280;46212;50.258;19.062;2024-02-26T07:45:59;97504.56;;;5.77;88.41
53340;BME280;46212;50.258;19.062;2024-02-26T07:48:24;97491.06;;;5.83;88.48
53340;BME280;46212;50.258;19.062;2024-02-26T07:50:50;97494.69;;;6.11;88.21
53340;BME280;46212;50.258;19.062;2024-02-26T07:53:15;97498.09;;;6.51;87.07
53340;BME280;46212;50.258;19.062;2024-02-26T07:55:40;97500.88;;;6.69;86.20
53340;BME280;46212;50.258;19.062;2024-02-26T07:58:06;97496.94;;;6.98;85.25
53340;BME280;46212;50.258;19.062;2024-02-26T08:00:31;97503.59;;;7.15;84.86
53340;BME280;46212;50.258;19.062;2024-02-26T08:02:57;97500.09;;;7.32;84.02
53340;BME280;46212;50.258;19.062;2024-02-26T08:05:22;97491.97;;;7.38;83.81
53340;BME280;46212;50.258;19.062;2024-02-26T08:07:47;97499.25;;;7.59;83.21
53340;BME280;46212;50.258;19.062;2024-02-26T08:10:13;97488.16;;;7.44;83.48
53340;BME280;46212;50.258;19.062;2024-02-26T08:12:39;97490.44;;;7.46;83.21
53340;BME280;46212;50.258;19.062;2024-02-26T08:15:05;97500.75;;;7.69;82.78
53340;BME280;46212;50.258;19.062;2024-02-26T08:17:30;97499.94;;;7.78;82.48
53340;BME280;46212;50.258;19.062;2024-02-26T08:19:58;97498.69;;;7.88;82.62
53340;BME280;46212;50.258;19.062;2024-02-26T08:22:23;97505.56;;;7.92;82.71
53340;BME280;46212;50.258;19.062;2024-02-26T08:24:48;97498.03;;;8.02;82.52
53340;BME280;46212;50.258;19.062;2024-02-26T08:27:14;97485.06;;;7.93;82.99
53340;BME280;46212;50.258;19.062;2024-02-26T08:29:39;97503.72;;;8.22;82.79
53340;BME280;46212;50.258;19.062;2024-02-26T08:32:05;97496.16;;;8.41;81.91
53340;BME280;46212;50.258;19.062;2024-02-26T08:34:32;97500.09;;;8.49;81.00
53340;BME280;46212;50.258;19.062;2024-02-26T08:36:57;97499.84;;;8.62;80.59
53340;BME280;46212;50.258;19.062;2024-02-26T08:39:23;97505.53;;;8.58;80.62
53340;BME280;46212;50.258;19.062;2024-02-26T08:41:48;97501.31;;;8.72;80.16
53340;BME280;46212;50.258;19.062;2024-02-26T08:44:13;97496.84;;;8.74;79.90
53340;BME280;46212;50.258;19.062;2024-02-26T08:46:39;97494.19;;;8.65;80.57
53340;BME280;46212;50.258;19.062;2024-02-26T08:49:04;97501.59;;;8.74;80.88
53340;BME280;46212;50.258;19.062;2024-02-26T08:51:30;97495.44;;;8.79;80.79
53340;BME280;46212;50.258;19.062;2024-02-26T08:53:55;97497.88;;;9.00;80.32
53340;BME280;46212;50.258;19.062;2024-02-26T08:56:21;97504.09;;;9.25;79.04
53340;BME280;46212;50.258;19.062;2024-02-26T08:58:47;97494.09;;;9.42;78.77
53340;BME280;46212;50.258;19.062;2024-02-26T09:01:16;97490.22;;;9.48;78.31
53340;BME280;46212;50.258;19.062;2024-02-26T09:03:42;97490.50;;;9.36;78.73
53340;BME280;46212;50.258;19.062;2024-02-26T09:06:07;97497.34;;;9.40;78.97
53340;BME280;46212;50.258;19.062;2024-02-26T09:08:33;97493.19;;;9.45;79.07
53340;BME280;46212;50.258;19.062;2024-02-26T09:10:58;97509.72;;;9.59;78.07
53340;BME280;46212;50.258;19.062;2024-02-26T09:13:24;97493.63;;;9.58;78.19
53340;BME280;46212;50.258;19.062;2024-02-26T09:15:49;97506.38;;;9.70;78.35
53340;BME280;46212;50.258;19.062;2024-02-26T09:18:14;97498.78;;;9.65;78.88
53340;BME280;46212;50.258;19.062;2024-02-26T09:20:41;97491.25;;;9.80;78.32
53340;BME280;46212;50.258;19.062;2024-02-26T09:23:06;97488.94;;;9.93;78.61
53340;BME280;46212;50.258;19.062;2024-02-26T09:25:31;97494.31;;;10.32;77.48
53340;BME280;46212;50.258;19.062;2024-02-26T09:27:59;97491.50;;;10.66;76.16
53340;BME280;46212;50.258;19.062;2024-02-26T09:30:24;97475.41;;;10.85;75.15
53340;BME280;46212;50.258;19.062;2024-02-26T09:32:49;97493.81;;;11.14;73.62
53340;BME280;46212;50.258;19.062;2024-02-26T09:35:15;97506.28;;;11.30;72.85
53340;BME280;46212;50.258;19.062;2024-02-26T09:37:40;97489.59;;;11.44;73.10
53340;BME280;46212;50.258;19.062;2024-02-26T09:40:08;97490.50;;;11.61;72.02
53340;BME280;46212;50.258;19.062;2024-02-26T09:42:37;97494.19;;;11.73;71.66
53340;BME280;46212;50.258;19.062;2024-02-26T09:45:05;97501.91;;;12.00;70.20
53340;BME280;46212;50.258;19.062;2024-02-26T09:47:35;97493.97;;;12.13;69.59
53340;BME280;46212;50.258;19.062;2024-02-26T09:50:01;97496.94;;;12.47;68.08
53340;BME280;46212;50.258;19.062;2024-02-26T09:52:28;97498.28;;;12.62;67.43
53340;BME280;46212;50.258;19.062;2024-02-26T09:54:54;97503.38;;;12.75;68.23
53340;BME280;46212;50.258;19.062;2024-02-26T09:57:20;97497.13;;;12.86;66.82
53340;BME280;46212;50.258;19.062;2024-02-26T09:59:51;97492.38;;;12.97;66.57
53340;BME280;46212;50.258;19.062;2024-02-26T10:02:19;97488.94;;;13.13;65.45
53340;BME280;46212;50.258;19.062;2024-02-26T10:04:47;97493.75;;;13.24;65.59
53340;BME280;46212;50.258;19.062;2024-02-26T10:07:13;97490.47;;;13.20;65.95
53340;BME280;46212;50.258;19.062;2024-02-26T10:09:39;97493.53;;;13.33;65.49
53340;BME280;46212;50.258;19.062;2024-02-26T10:12:07;97482.94;;;13.43;64.42
53340;BME280;46212;50.258;19.062;2024-02-26T10:14:35;97477.44;;;13.59;63.41
53340;BME280;46212;50.258;19.062;2024-02-26T10:17:01;97484.25;;;13.80;62.97
53340;BME280;46212;50.258;19.062;2024-02-26T10:19:28;97477.94;;;13.80;63.64
53340;BME280;46212;50.258;19.062;2024-02-26T10:21:56;97486.75;;;14.12;64.35
53340;BME280;46212;50.258;19.062;2024-02-26T10:24:23;97490.00;;;14.49;61.57
53340;BME280;46212;50.258;19.062;2024-02-26T10:26:49;97482.66;;;14.57;61.32
53340;BME280;46212;50.258;19.062;2024-02-26T10:29:14;97480.13;;;14.65;59.79
53340;BME280;46212;50.258;19.062;2024-02-26T10:31:42;97482.13;;;14.64;59.34
53340;BME280;46212;50.258;19.062;2024-02-26T10:34:08;97472.50;;;14.65;60.15
53340;BME280;46212;50.258;19.062;2024-02-26T10:36:34;97473.28;;;14.66;60.49
53340;BME280;46212;50.258;19.062;2024-02-26T10:39:02;97478.81;;;14.77;58.62
53340;BME280;46212;50.258;19.062;2024-02-26T10:41:29;97478.97;;;14.96;58.83
53340;BME280;46212;50.258;19.062;2024-02-26T10:43:54;97483.63;;;15.28;56.53
53340;BME280;46212;50.258;19.062;2024-02-26T10:46:20;97478.25;;;15.36;57.82
53340;BME280;46212;50.258;19.062;2024-02-26T10:48:53;97473.81;;;15.63;54.56
53340;BME280;46212;50.258;19.062;2024-02-26T10:51:29;97476.47;;;15.38;55.35
53340;BME280;46212;50.258;19.062;2024-02-26T10:53:58;97482.75;;;15.50;55.35
53340;BME280;46212;50.258;19.062;2024-02-26T10:56:26;97471.81;;;15.58;54.57
53340;BME280;46212;50.258;19.062;2024-02-26T10:58:55;97474.88;;;15.54;54.83
53340;BME280;46212;50.258;19.062;2024-02-26T11:01:24;97488.41;;;15.74;55.01
53340;BME280;46212;50.258;19.062;2024-02-26T11:03:51;97486.94;;;15.68;54.30
53340;BME280;46212;50.258;19.062;2024-02-26T11:06:20;97479.00;;;15.77;54.58
53340;BME280;46212;50.258;19.062;2024-02-26T11:08:52;97477.38;;;15.93;53.54
53340;BME280;46212;50.258;19.062;2024-02-26T11:11:19;97476.56;;;15.98;53.55
53340;BME280;46212;50.258;19.062;2024-02-26T11:13:45;97474.50;;;16.04;53.11
53340;BME280;46212;50.258;19.062;2024-02-26T11:16:16;97481.81;;;16.07;53.55
53340;BME280;46212;50.258;19.062;2024-02-26T11:18:43;97479.38;;;16.22;52.93
53340;BME280;46212;50.258;19.062;2024-02-26T11:21:16;97473.00;;;16.27;52.95
53340;BME280;46212;50.258;19.062;2024-02-26T11:23:45;97477.72;;;16.08;53.66
53340;BME280;46212;50.258;19.062;2024-02-26T11:26:11;97462.53;;;16.09;53.36
53340;BME280;46212;50.258;19.062;2024-02-26T11:28:38;97466.75;;;16.45;52.15
53340;BME280;46212;50.258;19.062;2024-02-26T11:31:04;97461.00;;;16.38;52.51
53340;BME280;46212;50.258;19.062;2024-02-26T11:33:31;97464.41;;;16.55;52.68
53340;BME280;46212;50.258;19.062;2024-02-26T11:35:57;97473.66;;;16.63;52.34
53340;BME280;46212;50.258;19.062;2024-02-26T11:38:24;97478.97;;;16.67;52.64
53340;BME280;46212;50.258;19.062;2024-02-26T11:40:51;97475.94;;;16.65;51.88
53340;BME280;46212;50.258;19.062;2024-02-26T11:43:18;97469.53;;;16.70;51.26
53340;BME280;46212;50.258;19.062;2024-02-26T11:48:14;97456.03;;;16.55;51.97
53340;BME280;46212;50.258;19.062;2024-02-26T11:50:41;97464.84;;;16.59;52.55
53340;BME280;46212;50.258;19.062;2024-02-26T11:53:31;97482.38;;;16.30;52.80
53340;BME280;46212;50.258;19.062;2024-02-26T11:59:00;97461.06;;;15.73;53.93
53340;BME280;46212;50.258;19.062;2024-02-26T12:01:39;97464.00;;;15.86;54.45
53340;BME280;46212;50.258;19.062;2024-02-26T12:04:06;97454.84;;;15.61;55.67
53340;BME280;46212;50.258;19.062;2024-02-26T12:06:46;97455.22;;;15.41;55.64
53340;BME280;46212;50.258;19.062;2024-02-26T12:09:12;97455.78;;;15.34;56.42
53340;BME280;46212;50.258;19.062;2024-02-26T12:11:39;97446.13;;;14.94;56.73
53340;BME280;46212;50.258;19.062;2024-02-26T12:14:09;97456.25;;;14.92;58.04
53340;BME280;46212;50.258;19.062;2024-02-26T12:16:38;97441.41;;;14.78;58.79
53340;BME280;46212;50.258;19.062;2024-02-26T12:19:05;97452.34;;;14.65;58.55
53340;BME280;46212;50.258;19.062;2024-02-26T12:21:33;97462.06;;;14.88;58.06
53340;BME280;46212;50.258;19.062;2024-02-26T12:24:15;97449.09;;;14.55;58.58
53340;BME280;46212;50.258;19.062;2024-02-26T12:26:43;97450.09;;;14.47;58.71
53340;BME280;46212;50.258;19.062;2024-02-26T12:29:09;97446.09;;;14.36;59.31
53340;BME280;46212;50.258;19.062;2024-02-26T12:31:36;97455.94;;;14.38;59.61
53340;BME280;46212;50.258;19.062;2024-02-26T12:34:03;97450.66;;;14.40;59.09
53340;BME280;46212;50.258;19.062;2024-02-26T12:36:29;97447.38;;;14.13;60.52
53340;BME280;46212;50.258;19.062;2024-02-26T12:38:55;97466.56;;;14.22;60.86
53340;BME280;46212;50.258;19.062;2024-02-26T12:41:21;97461.53;;;14.10;60.85
53340;BME280;46212;50.258;19.062;2024-02-26T12:43:47;97459.00;;;14.12;61.97
53340;BME280;46212;50.258;19.062;2024-02-26T12:46:13;97461.75;;;14.28;60.85
53340;BME280;46212;50.258;19.062;2024-02-26T12:48:42;97462.75;;;14.25;61.28
53340;BME280;46212;50.258;19.062;2024-02-26T12:51:08;97452.19;;;14.07;61.48
53340;BME280;46212;50.258;19.062;2024-02-26T12:53:35;97458.22;;;14.11;60.75
53340;BME280;46212;50.258;19.062;2024-02-26T12:56:02;97460.25;;;14.16;60.69
53340;BME280;46212;50.258;19.062;2024-02-26T12:58:29;97459.75;;;14.07;60.68